Bremond, Texas
Current Conditions -  °F | °C
As of 3:35 AM on Friday 24 Oct 2014 (Local Time) from KLHB Reporting Station
Broken Clouds Broken Clouds  
Wind Chill: 57°   Ceiling: 7000
Heat Index: 57°   Visibility: 10mi
Dew Point: 55°   Wind: 0mph
Humidity: 91%   Direction: NA
Pressure: 30.14"   Gusts: NA
Location:  31.17°N, 96.68°W
Report Text: KLHB 240835Z AUTO 00000KT 10SM BKN070 14/13 A3014 RMK AO2 T01410126
Loading
Personal Weather Stations






























Interactive Weather Map
Tropical Storm Tracking
New forecast layout! Learn more

10-Day Weather Forecast

Advertisements
Track Severe Weather on mobile